Time;durP1;ratioP1;P1;durP2;ratioP2;P2;SDS_P1;SDS_P2;PMS_P1;PMS_P2;Temp;Humidity;BMP_temperature;BMP_pressure;BME280_temperature;BME280_humidity;BME280_pressure;Samples;Min_cycle;Max_cycle;Signal;HPM_P1;HPM_P2
2023/07/04 00:01:11;;;;;;;9.80;3.53;;;;;;;19.74;65.61;99693.84;4887457;29;20139;-86
2023/07/04 00:03:40;;;;;;;7.90;3.28;;;;;;;19.70;66.00;99712.28;4864308;29;20071;-87
2023/07/04 00:06:08;;;;;;;10.48;4.57;;;;;;;19.71;65.93;99696.97;4875222;29;21215;-86
2023/07/04 00:08:36;;;;;;;8.40;3.92;;;;;;;19.65;65.75;99693.16;4877688;29;20529;-86
2023/07/04 00:11:04;;;;;;;9.48;3.55;;;;;;;19.66;65.79;99702.91;4853867;29;20052;-85
2023/07/04 00:13:32;;;;;;;9.73;3.65;;;;;;;19.65;65.74;99714.72;4864235;29;20059;-87
2023/07/04 00:15:59;;;;;;;8.35;3.80;;;;;;;19.65;65.85;99706.63;4859997;29;20088;-87
2023/07/04 00:18:27;;;;;;;8.68;3.80;;;;;;;19.61;65.74;99708.06;4878424;29;20056;-87
2023/07/04 00:20:56;;;;;;;9.30;3.88;;;;;;;19.61;65.67;99708.06;4866973;29;20081;-86
2023/07/04 00:23:25;;;;;;;8.35;4.05;;;;;;;19.62;65.79;99701.66;4873747;29;20060;-86
2023/07/04 00:25:52;;;;;;;9.07;3.63;;;;;;;19.58;66.21;99703.06;4845287;29;20099;-86
2023/07/04 00:28:21;;;;;;;8.27;3.55;;;;;;;19.58;65.94;99696.84;4854826;29;20080;-86
2023/07/04 00:30:51;;;;;;;6.22;3.50;;;;;;;19.60;65.85;99701.00;4879290;29;20419;-86
2023/07/04 00:33:23;;;;;;;14.18;3.90;;;;;;;19.60;66.01;99701.00;4876688;29;20124;-86
2023/07/04 00:36:00;;;;;;;9.50;4.05;;;;;;;19.47;66.29;99701.75;4886331;29;20131;-87
2023/07/04 00:38:27;;;;;;;8.15;3.60;;;;;;;19.55;65.73;99699.94;4868997;29;20063;-86
2023/07/04 00:40:54;;;;;;;9.38;4.28;;;;;;;19.46;65.80;99700.09;4880120;29;20107;-88
2023/07/04 00:43:22;;;;;;;10.20;3.55;;;;;;;19.40;66.22;99700.88;4884665;29;20060;-86
2023/07/04 00:45:55;;;;;;;11.73;4.28;;;;;;;19.44;65.78;99709.41;4886465;29;20108;-86
2023/07/04 00:48:23;;;;;;;10.95;3.85;;;;;;;19.39;65.90;99711.84;4848731;29;20466;-87
2023/07/04 00:50:52;;;;;;;10.50;3.78;;;;;;;19.38;65.48;99708.31;4870311;29;20133;-86
2023/07/04 00:53:19;;;;;;;6.82;3.45;;;;;;;19.33;65.50;99705.38;4893242;29;20059;-87
2023/07/04 00:55:48;;;;;;;9.02;3.58;;;;;;;19.30;65.68;99711.16;4875823;29;20041;-87
2023/07/04 00:58:15;;;;;;;7.75;3.92;;;;;;;19.34;65.51;99712.44;4861333;29;20052;-86
2023/07/04 01:00:44;;;;;;;8.23;3.40;;;;;;;19.37;65.44;99714.75;4910064;29;20057;-87
2023/07/04 01:03:13;;;;;;;8.63;3.92;;;;;;;19.39;65.57;99709.16;4879434;29;20525;-87
2023/07/04 01:06:03;;;;;;;11.45;3.92;;;;;;;19.38;65.29;99711.00;4910617;29;20056;-86
2023/07/04 01:08:36;;;;;;;8.27;3.35;;;;;;;19.37;65.59;99716.59;4879121;29;20480;-86
2023/07/04 01:11:05;;;;;;;7.13;3.22;;;;;;;19.40;65.45;99713.50;4859181;29;20116;-86
2023/07/04 01:13:43;;;;;;;6.65;3.85;;;;;;;19.34;65.75;99715.13;4885485;29;20098;-88
2023/07/04 01:16:15;;;;;;;6.65;3.60;;;;;;;19.38;65.62;99721.78;4882789;29;20044;-86
2023/07/04 01:18:52;;;;;;;10.85;4.47;;;;;;;19.25;66.06;99717.13;4878112;29;20063;-86
2023/07/04 01:21:21;;;;;;;8.27;3.53;;;;;;;19.30;65.81;99716.53;4875389;29;20045;-86
2023/07/04 01:24:11;;;;;;;8.60;3.50;;;;;;;19.16;66.41;99726.38;4886178;29;20466;-86
2023/07/04 01:26:41;;;;;;;8.00;3.10;;;;;;;19.25;66.04;99714.44;4855141;29;20060;-87
2023/07/04 01:29:10;;;;;;;10.60;3.75;;;;;;;19.22;66.09;99714.81;4889623;29;20116;-87
2023/07/04 01:31:37;;;;;;;9.88;3.92;;;;;;;19.22;65.96;99714.81;4858915;29;20056;-88
2023/07/04 01:34:05;;;;;;;13.60;3.85;;;;;;;19.20;66.08;99722.25;4890003;29;20076;-86
2023/07/04 01:36:37;;;;;;;8.13;3.67;;;;;;;19.16;66.23;99718.31;4889263;29;20051;-87
2023/07/04 01:39:05;;;;;;;7.95;3.65;;;;;;;19.16;66.29;99721.00;4840234;29;20127;-86
2023/07/04 01:41:32;;;;;;;7.47;3.25;;;;;;;19.14;65.96;99712.28;4889116;29;20464;-86
2023/07/04 01:44:03;;;;;;;8.18;3.85;;;;;;;19.13;65.76;99715.97;4869601;29;20054;-87
2023/07/04 01:46:31;;;;;;;9.27;4.32;;;;;;;19.16;65.72;99722.84;4872813;29;20060;-86
2023/07/04 01:48:58;;;;;;;7.28;3.42;;;;;;;19.14;65.77;99722.22;4859783;29;20072;-87
2023/07/04 01:51:31;;;;;;;9.60;4.78;;;;;;;19.11;65.85;99728.81;4881307;29;20052;-86
2023/07/04 01:53:58;;;;;;;7.38;3.67;;;;;;;19.14;65.75;99724.91;4874492;29;20410;-86
2023/07/04 01:56:27;;;;;;;10.25;4.22;;;;;;;19.14;65.69;99723.03;4887986;29;20569;-86
2023/07/04 01:58:54;;;;;;;12.55;4.88;;;;;;;19.11;66.14;99725.28;4893292;29;20135;-86
2023/07/04 02:01:22;;;;;;;12.05;3.85;;;;;;;19.09;65.75;99720.94;4860207;29;20142;-86
2023/07/04 02:03:48;;;;;;;6.95;3.25;;;;;;;19.07;65.91;99725.66;4861350;29;20052;-87
2023/07/04 02:06:15;;;;;;;12.50;3.67;;;;;;;19.06;65.65;99725.88;4861652;29;20497;-86
2023/07/04 02:08:42;;;;;;;9.38;3.85;;;;;;;19.02;65.93;99724.59;4857059;29;20055;-87
2023/07/04 02:11:09;;;;;;;11.75;4.28;;;;;;;19.04;66.16;99727.94;4876017;29;20055;-87
2023/07/04 02:13:36;;;;;;;9.35;3.85;;;;;;;19.04;66.41;99722.53;4860746;29;20056;-87
2023/07/04 02:16:02;;;;;;;10.02;3.70;;;;;;;19.06;66.70;99723.19;4857913;29;20104;-88
2023/07/04 02:18:30;;;;;;;11.07;4.00;;;;;;;19.04;66.64;99730.63;4893014;29;20724;-88
2023/07/04 02:20:56;;;;;;;7.78;3.65;;;;;;;18.96;66.59;99722.69;4845853;29;21653;-86
2023/07/04 02:23:23;;;;;;;9.88;3.67;;;;;;;18.96;66.56;99723.50;4889402;29;20416;-87
2023/07/04 02:25:53;;;;;;;10.02;3.50;;;;;;;18.94;66.71;99730.09;4874493;29;20134;-88
2023/07/04 02:28:19;;;;;;;11.77;3.60;;;;;;;18.94;66.62;99719.34;4848583;29;20472;-87
2023/07/04 02:30:56;;;;;;;13.93;3.65;;;;;;;18.81;67.01;99723.56;4860556;29;20063;-87
2023/07/04 02:33:26;;;;;;;8.80;4.10;;;;;;;18.89;66.87;99716.41;4860693;29;20048;-86
2023/07/04 02:35:53;;;;;;;7.90;3.78;;;;;;;18.84;66.63;99725.03;4878208;29;20052;-86
2023/07/04 02:38:20;;;;;;;10.30;3.38;;;;;;;18.81;66.58;99733.50;4873069;29;20436;-87
2023/07/04 02:40:48;;;;;;;8.57;3.83;;;;;;;18.85;66.33;99737.47;4865284;29;20056;-87
2023/07/04 02:43:16;;;;;;;7.03;3.92;;;;;;;18.80;66.27;99727.28;4860120;29;20108;-87
2023/07/04 02:45:43;;;;;;;11.30;4.03;;;;;;;18.81;66.39;99733.50;4857489;29;20052;-87
2023/07/04 02:48:14;;;;;;;8.63;3.78;;;;;;;18.78;66.45;99723.13;4863556;29;20223;-87
2023/07/04 02:50:42;;;;;;;8.38;3.85;;;;;;;18.75;66.28;99723.47;4844881;29;20414;-86
2023/07/04 02:53:09;;;;;;;8.35;4.13;;;;;;;18.75;66.19;99723.47;4892249;29;20457;-86
2023/07/04 02:55:37;;;;;;;8.63;3.60;;;;;;;18.76;66.43;99731.38;4875988;29;20108;-86
2023/07/04 02:58:05;;;;;;;13.52;3.80;;;;;;;18.72;66.38;99730.06;4873504;29;20777;-87
2023/07/04 03:00:34;;;;;;;8.00;4.10;;;;;;;18.70;66.60;99725.88;4876223;29;20096;-87
2023/07/04 03:03:02;;;;;;;11.18;4.68;;;;;;;18.65;66.44;99737.25;4861249;29;20049;-86
2023/07/04 03:05:31;;;;;;;10.50;4.32;;;;;;;18.68;66.31;99741.41;4869556;29;20044;-86
2023/07/04 03:07:58;;;;;;;9.23;4.13;;;;;;;18.63;66.23;99740.13;4864319;29;20555;-86
2023/07/04 03:10:25;;;;;;;11.77;3.97;;;;;;;18.63;66.28;99740.13;4864988;29;20400;-87
2023/07/04 03:12:53;;;;;;;10.32;4.38;;;;;;;18.64;66.21;99740.94;4869940;29;20053;-87
2023/07/04 03:15:22;;;;;;;8.80;3.65;;;;;;;18.60;66.18;99742.38;4886256;29;20048;-86
2023/07/04 03:17:50;;;;;;;9.65;4.00;;;;;;;18.58;66.07;99744.41;4853796;29;20052;-86
2023/07/04 03:20:19;;;;;;;9.98;3.90;;;;;;;18.59;66.04;99754.13;4834607;29;20998;-87
2023/07/04 03:22:49;;;;;;;9.27;4.07;;;;;;;18.56;66.02;99754.50;4878576;29;20044;-84
2023/07/04 03:25:17;;;;;;;7.50;3.47;;;;;;;18.56;66.02;99759.88;4880379;29;20132;-85
2023/07/04 03:27:47;;;;;;;11.02;4.00;;;;;;;18.51;66.37;99756.94;4872691;29;20484;-85
2023/07/04 03:30:18;;;;;;;7.50;3.75;;;;;;;18.53;66.16;99765.66;4873138;29;20052;-84
2023/07/04 03:32:48;;;;;;;14.65;4.38;;;;;;;18.50;66.34;99763.34;4874154;29;20048;-84
2023/07/04 03:35:16;;;;;;;8.20;3.70;;;;;;;18.50;66.14;99766.03;4869675;29;20131;-85
2023/07/04 03:37:43;;;;;;;11.38;4.03;;;;;;;18.47;66.25;99761.88;4887432;29;20084;-85
2023/07/04 03:40:10;;;;;;;8.68;4.20;;;;;;;18.47;66.23;99769.06;4876626;29;22850;-85
2023/07/04 03:42:38;;;;;;;11.50;4.22;;;;;;;18.50;66.26;99769.56;4875960;29;20515;-85
2023/07/04 03:45:06;;;;;;;8.23;3.83;;;;;;;18.49;66.26;99767.03;4862395;29;20496;-85
2023/07/04 03:47:34;;;;;;;8.10;3.47;;;;;;;18.47;66.15;99769.94;4855010;29;20060;-85
2023/07/04 03:50:03;;;;;;;9.15;4.63;;;;;;;18.47;66.13;99769.06;4877889;29;20135;-85
2023/07/04 03:52:30;;;;;;;15.27;5.78;;;;;;;18.48;65.98;99770.75;4877141;29;20048;-85
2023/07/04 03:54:57;;;;;;;14.18;5.70;;;;;;;18.54;66.48;99778.06;4851913;29;20139;-84
2023/07/04 03:57:24;;;;;;;14.68;7.45;;;;;;;18.56;67.05;99781.41;4887192;29;20048;-85
2023/07/04 03:59:50;;;;;;;12.95;6.22;;;;;;;18.65;66.86;99777.59;4841061;29;20040;-84
2023/07/04 04:02:17;;;;;;;15.05;4.53;;;;;;;18.78;67.28;99787.69;4883947;29;20112;-85
2023/07/04 04:04:44;;;;;;;18.80;4.63;;;;;;;19.03;66.61;99788.13;4879701;29;20048;-85
2023/07/04 04:07:11;;;;;;;15.10;4.82;;;;;;;19.30;65.60;99784.69;4882218;29;20803;-85
2023/07/04 04:09:38;;;;;;;12.20;5.22;;;;;;;19.52;64.59;99792.75;4887583;29;20048;-84
2023/07/04 04:12:06;;;;;;;12.70;5.32;;;;;;;19.63;63.78;99791.38;4889104;29;20124;-85
2023/07/04 04:14:34;;;;;;;9.77;5.93;;;;;;;19.59;63.95;99780.16;4885003;29;20385;-85
2023/07/04 04:17:02;;;;;;;15.45;6.13;;;;;;;19.55;63.98;99781.56;4861616;29;20052;-85
2023/07/04 04:19:29;;;;;;;12.63;5.47;;;;;;;19.49;63.98;99787.75;4875632;29;20063;-85
2023/07/04 04:21:56;;;;;;;11.43;4.35;;;;;;;19.44;64.24;99782.13;4891280;29;20067;-85
2023/07/04 04:24:23;;;;;;;17.50;4.93;;;;;;;19.42;64.36;99785.00;4887251;29;20033;-85
2023/07/04 04:26:50;;;;;;;8.18;4.47;;;;;;;19.46;64.49;99790.81;4849789;29;20695;-85
2023/07/04 04:29:17;;;;;;;9.80;4.30;;;;;;;19.47;64.09;99787.09;4849860;29;20053;-85
2023/07/04 04:31:45;;;;;;;12.50;4.35;;;;;;;19.47;64.56;99789.81;4868012;29;20056;-85
2023/07/04 04:34:13;;;;;;;9.43;3.70;;;;;;;19.42;64.80;99787.69;4880460;29;20048;-85
2023/07/04 04:36:40;;;;;;;7.20;3.92;;;;;;;19.40;64.79;99788.91;4894474;29;20048;-85
2023/07/04 04:39:06;;;;;;;10.25;4.18;;;;;;;19.34;64.83;99793.22;4869476;29;20071;-85
2023/07/04 04:41:33;;;;;;;7.20;3.90;;;;;;;19.35;65.05;99786.78;4888218;29;20107;-85
2023/07/04 04:44:02;;;;;;;11.02;4.28;;;;;;;19.33;65.02;99788.00;4884142;29;20064;-85
2023/07/04 04:46:29;;;;;;;13.35;4.90;;;;;;;19.35;65.10;99800.25;4891431;29;20049;-85
2023/07/04 04:48:58;;;;;;;9.82;4.18;;;;;;;19.36;65.36;99798.38;4876740;29;20112;-85
2023/07/04 04:51:25;;;;;;;9.70;4.30;;;;;;;19.40;65.42;99794.28;4892225;29;20048;-85
2023/07/04 04:53:52;;;;;;;8.75;4.15;;;;;;;19.40;65.72;99803.19;4863102;29;20063;-85
2023/07/04 04:56:18;;;;;;;11.27;4.75;;;;;;;19.42;65.80;99795.75;4872929;29;20469;-85
2023/07/04 04:58:45;;;;;;;17.88;5.93;;;;;;;19.44;65.86;99799.09;4883809;29;20168;-83
2023/07/04 05:01:19;;;;;;;11.00;4.65;;;;;;;19.45;65.98;99802.63;4892172;29;20148;-84
2023/07/04 05:03:49;;;;;;;9.15;4.22;;;;;;;19.45;66.56;99800.75;4890983;29;20072;-84
2023/07/04 05:06:16;;;;;;;10.85;4.28;;;;;;;19.48;66.45;99802.22;4858109;29;20127;-85
2023/07/04 05:08:45;;;;;;;8.65;4.85;;;;;;;19.48;66.78;99791.47;4890916;29;20048;-83
2023/07/04 05:11:13;;;;;;;10.32;4.20;;;;;;;19.48;67.03;99796.84;4894551;29;20401;-83
2023/07/04 05:13:40;;;;;;;13.50;4.50;;;;;;;19.47;66.95;99793.31;4889830;29;20539;-84
2023/07/04 05:16:10;;;;;;;19.10;4.40;;;;;;;19.46;67.04;99793.50;4860203;29;20059;-83
2023/07/04 05:18:38;;;;;;;11.23;4.32;;;;;;;19.45;67.44;99798.06;4868597;29;20082;-83
2023/07/04 05:21:11;;;;;;;12.52;4.70;;;;;;;19.44;67.94;99799.09;4883005;29;20055;-83
2023/07/04 05:23:40;;;;;;;11.63;4.28;;;;;;;19.47;67.70;99804.09;4894234;29;20132;-84
2023/07/04 05:26:10;;;;;;;10.07;4.75;;;;;;;19.47;68.20;99798.72;4888464;29;20052;-84
2023/07/04 05:28:37;;;;;;;15.07;4.75;;;;;;;19.51;67.95;99801.84;4892020;29;20052;-84
2023/07/04 05:31:11;;;;;;;15.30;4.93;;;;;;;19.49;68.89;99806.59;4888155;29;20072;-84
2023/07/04 05:33:42;;;;;;;16.58;5.20;;;;;;;19.52;68.56;99806.22;4867522;29;20417;-83
2023/07/04 05:36:13;;;;;;;10.93;4.40;;;;;;;19.50;69.05;99811.78;4890099;29;20453;-84
2023/07/04 05:38:40;;;;;;;18.20;6.13;;;;;;;19.52;68.94;99808.91;4886392;29;20048;-83
2023/07/04 05:41:08;;;;;;;14.20;5.07;;;;;;;19.55;68.88;99813.06;4875901;29;20064;-83
2023/07/04 05:43:35;;;;;;;20.25;5.70;;;;;;;19.56;68.71;99814.72;4857322;29;20449;-82
2023/07/04 05:46:03;;;;;;;11.63;5.63;;;;;;;19.52;68.93;99809.72;4875127;29;20056;-84
2023/07/04 05:48:30;;;;;;;17.15;5.70;;;;;;;19.54;68.89;99806.84;4882539;29;20053;-84
2023/07/04 05:51:02;;;;;;;14.77;5.50;;;;;;;19.53;69.10;99813.25;4889637;29;20049;-83
2023/07/04 05:53:31;;;;;;;17.70;5.70;;;;;;;19.56;69.31;99807.47;4861508;29;20075;-83
2023/07/04 05:56:15;;;;;;;17.52;6.05;;;;;;;19.47;70.63;99808.66;4862743;29;20071;-82
2023/07/04 05:58:44;;;;;;;18.02;6.03;;;;;;;19.61;69.65;99814.97;4900918;29;20064;-83
2023/07/04 06:01:11;;;;;;;15.40;5.28;;;;;;;19.57;69.56;99816.41;4887116;29;20098;-83
2023/07/04 06:03:39;;;;;;;15.70;6.43;;;;;;;19.63;69.68;99819.13;4898331;29;20045;-82
2023/07/04 06:06:14;;;;;;;14.90;5.90;;;;;;;19.66;69.41;99821.44;4867663;29;20799;-82
2023/07/04 06:08:41;;;;;;;19.60;6.13;;;;;;;19.65;69.25;99817.09;4868348;29;20056;-83
2023/07/04 06:11:08;;;;;;;19.08;7.47;;;;;;;19.65;69.83;99816.25;4884811;29;20048;-84
2023/07/04 06:13:35;;;;;;;16.25;6.15;;;;;;;19.66;69.73;99815.22;4874619;29;20112;-83
2023/07/04 06:16:04;;;;;;;15.00;6.50;;;;;;;19.66;69.68;99821.44;4863137;29;20056;-83
2023/07/04 06:18:31;;;;;;;16.92;7.03;;;;;;;19.72;69.94;99814.47;4893592;29;20048;-83
2023/07/04 06:21:08;;;;;;;19.38;6.78;;;;;;;19.76;70.90;99812.22;4869498;29;20048;-84
2023/07/04 06:23:36;;;;;;;17.63;8.25;;;;;;;19.80;70.86;99802.72;4874368;29;20108;-83
2023/07/04 06:26:05;;;;;;;14.55;6.28;;;;;;;19.80;70.84;99808.94;4877261;29;20062;-83
2023/07/04 06:28:32;;;;;;;16.88;7.32;;;;;;;19.82;70.97;99808.72;4890145;29;20052;-82
2023/07/04 06:31:03;;;;;;;19.30;6.32;;;;;;;19.87;71.00;99814.34;4885595;29;20492;-82
2023/07/04 06:33:31;;;;;;;18.90;6.55;;;;;;;19.93;71.06;99824.38;4882412;29;20078;-82
2023/07/04 06:35:58;;;;;;;18.67;6.93;;;;;;;19.94;71.54;99810.69;4874296;29;20132;-83
2023/07/04 06:38:25;;;;;;;18.52;6.57;;;;;;;20.00;71.17;99817.16;4875500;29;20915;-83
2023/07/04 06:41:01;;;;;;;16.05;5.90;;;;;;;20.03;71.00;99819.47;4878236;29;20055;-83
2023/07/04 06:43:30;;;;;;;20.92;6.00;;;;;;;20.11;70.22;99824.69;4864719;29;20378;-83
2023/07/04 06:45:58;;;;;;;14.02;6.10;;;;;;;20.20;69.33;99814.59;4868084;29;20128;-83
2023/07/04 06:48:26;;;;;;;18.35;7.22;;;;;;;20.27;68.25;99823.53;4860388;29;20048;-83
2023/07/04 06:51:03;;;;;;;18.65;6.40;;;;;;;20.25;67.38;99828.31;4894132;29;20080;-82
2023/07/04 06:53:31;;;;;;;22.52;7.00;;;;;;;20.33;67.23;99824.63;4887152;29;20052;-83
2023/07/04 06:56:08;;;;;;;17.45;7.70;;;;;;;20.35;66.86;99838.72;4885961;29;20468;-83
2023/07/04 06:58:37;;;;;;;14.63;7.22;;;;;;;20.40;66.42;99836.25;4861464;29;20710;-83
2023/07/04 07:01:04;;;;;;;18.42;7.03;;;;;;;20.45;65.79;99838.34;4893409;29;20071;-84
2023/07/04 07:03:31;;;;;;;19.20;8.02;;;;;;;20.50;65.47;99850.19;4864464;29;20052;-83
2023/07/04 07:06:04;;;;;;;19.77;7.63;;;;;;;20.50;64.74;99842.09;4887289;29;20051;-84
2023/07/04 07:08:31;;;;;;;23.90;7.18;;;;;;;20.57;65.18;99844.88;4863656;29;20054;-82
2023/07/04 07:11:06;;;;;;;24.40;8.13;;;;;;;20.55;64.18;99849.63;4892862;29;20393;-83
2023/07/04 07:13:34;;;;;;;22.75;8.00;;;;;;;20.60;64.20;99850.69;4879387;29;20536;-82
2023/07/04 07:16:16;;;;;;;21.23;8.63;;;;;;;20.53;63.67;99841.72;4861185;29;20048;-83
2023/07/04 07:18:44;;;;;;;24.38;9.75;;;;;;;20.65;63.72;99851.97;4877896;29;20054;-84
2023/07/04 07:21:13;;;;;;;26.23;8.63;;;;;;;20.65;63.02;99844.69;4877997;29;20071;-84
2023/07/04 07:23:41;;;;;;;24.17;7.82;;;;;;;20.68;63.27;99851.56;4889809;29;20053;-83
2023/07/04 07:26:10;;;;;;;26.60;7.53;;;;;;;20.71;63.03;99848.47;4897347;29;20048;-83
2023/07/04 07:28:38;;;;;;;18.35;6.78;;;;;;;20.71;62.96;99848.47;4875049;29;20105;-83
2023/07/04 07:31:07;;;;;;;29.20;8.18;;;;;;;20.74;62.20;99840.81;4875090;29;20052;-84
2023/07/04 07:33:36;;;;;;;30.33;8.18;;;;;;;20.80;61.81;99852.66;4885710;29;20054;-83
2023/07/04 07:36:14;;;;;;;26.23;8.07;;;;;;;20.77;61.23;99853.88;4860449;29;20037;-83
2023/07/04 07:38:41;;;;;;;24.30;8.00;;;;;;;20.85;61.25;99852.88;4877985;29;20139;-83
2023/07/04 07:41:08;;;;;;;28.05;8.48;;;;;;;20.88;60.43;99849.78;4869552;29;20104;-84
2023/07/04 07:43:38;;;;;;;26.73;8.65;;;;;;;20.86;59.65;99851.84;4869469;29;20058;-83
2023/07/04 07:46:16;;;;;;;26.40;8.32;;;;;;;20.84;59.38;99845.84;4886756;29;20067;-83
2023/07/04 07:48:42;;;;;;;24.65;8.85;;;;;;;20.94;59.54;99843.56;4878301;29;20052;-83
2023/07/04 07:51:12;;;;;;;21.35;7.95;;;;;;;20.96;59.53;99840.66;4874537;29;20057;-83
2023/07/04 07:53:41;;;;;;;30.33;8.60;;;;;;;21.00;57.81;99844.63;4888207;29;20056;-84
2023/07/04 07:56:09;;;;;;;30.10;7.75;;;;;;;21.02;58.45;99837.16;4874203;29;20052;-84
2023/07/04 07:58:36;;;;;;;29.88;8.13;;;;;;;20.97;57.90;99840.47;4871588;29;20061;-84
2023/07/04 08:01:21;;;;;;;25.40;7.22;;;;;;;20.89;57.96;99831.69;4859032;29;22832;-84
2023/07/04 08:03:48;;;;;;;19.27;7.40;;;;;;;20.95;58.61;99839.00;4886497;29;20060;-84
2023/07/04 08:06:26;;;;;;;22.73;6.40;;;;;;;20.94;58.37;99826.53;4877972;29;20141;-84
2023/07/04 08:08:54;;;;;;;26.90;7.43;;;;;;;21.03;58.84;99828.00;4869170;29;20119;-83
2023/07/04 08:11:22;;;;;;;27.55;7.85;;;;;;;21.06;58.91;99834.88;4874746;29;20484;-83
2023/07/04 08:13:49;;;;;;;23.27;9.10;;;;;;;21.10;58.56;99834.28;4861046;29;20132;-82
2023/07/04 08:16:21;;;;;;;25.27;9.70;;;;;;;21.15;57.83;99836.38;4897837;29;20107;-83
2023/07/04 08:18:49;;;;;;;;;;;;;;;21.01;57.82;99827.38;4887277;29;20080;-82
2023/07/04 08:21:16;;;;;;;26.52;8.10;;;;;;;21.18;57.38;99825.16;4882848;29;19923;-84
2023/07/04 08:23:42;;;;;;;18.75;7.70;;;;;;;21.22;57.52;99821.84;4860732;29;20056;-83
2023/07/04 08:26:18;;;;;;;29.02;8.52;;;;;;;21.23;55.39;99825.34;4867211;29;20140;-83
2023/07/04 08:28:44;;;;;;;22.90;7.65;;;;;;;21.30;56.48;99822.69;4876147;29;20079;-83
2023/07/04 08:31:12;;;;;;;28.40;8.23;;;;;;;21.30;54.53;99814.59;4893501;29;20668;-84
2023/07/04 08:33:38;;;;;;;21.75;8.02;;;;;;;21.36;53.91;99811.88;4844302;29;20545;-84
2023/07/04 08:36:07;;;;;;;29.73;8.32;;;;;;;21.34;54.37;99811.22;4858640;29;20048;-83
2023/07/04 08:38:34;;;;;;;24.05;7.53;;;;;;;21.35;54.04;99812.09;4873893;29;20056;-83
2023/07/04 08:41:01;;;;;;;25.65;7.47;;;;;;;21.38;54.30;99817.06;4888173;29;20052;-85
2023/07/04 08:43:39;;;;;;;28.48;8.40;;;;;;;21.37;53.61;99824.34;4886503;29;20049;-84
2023/07/04 08:46:07;;;;;;;22.67;8.20;;;;;;;21.44;53.46;99822.50;4891696;29;20077;-84
2023/07/04 08:48:34;;;;;;;27.13;7.97;;;;;;;21.45;54.02;99824.19;4878640;29;20044;-84
2023/07/04 08:51:03;;;;;;;21.02;8.15;;;;;;;21.52;53.00;99820.63;4880462;29;20064;-84
2023/07/04 08:53:30;;;;;;;22.90;7.82;;;;;;;21.50;52.98;99817.31;4860661;29;20446;-84
2023/07/04 08:56:02;;;;;;;23.23;7.32;;;;;;;;;;4880927;29;20468;-82
2023/07/04 08:58:59;;;;;;;25.65;7.43;;;;;;;21.41;53.09;99812.09;4884060;29;20044;-83
2023/07/04 09:01:38;;;;;;;22.80;7.80;;;;;;;21.53;53.01;99811.50;4890216;29;20116;-84
2023/07/04 09:04:38;;;;;;;22.98;7.22;;;;;;;21.57;52.75;99812.72;4885578;29;20521;-84
2023/07/04 09:07:27;;;;;;;22.15;8.07;;;;;;;21.63;52.58;99809.22;4868973;29;20128;-86
2023/07/04 09:10:08;;;;;;;30.92;8.38;;;;;;;21.60;52.61;99810.47;4873457;29;20047;-86
2023/07/04 09:12:36;;;;;;;26.50;8.05;;;;;;;21.68;52.64;99822.94;4868768;29;20056;-84
2023/07/04 09:15:17;;;;;;;24.08;7.25;;;;;;;21.63;52.30;99814.63;4874774;29;20072;-83
2023/07/04 09:17:50;;;;;;;20.02;6.82;;;;;;;21.65;52.45;99823.31;4869327;29;20080;-84
2023/07/04 09:20:17;;;;;;;25.60;7.68;;;;;;;21.67;52.48;99813.16;4877697;29;20052;-83
2023/07/04 09:22:44;;;;;;;23.45;7.80;;;;;;;21.74;52.71;99813.97;4888087;29;20053;-84
2023/07/04 09:25:10;;;;;;;26.90;7.85;;;;;;;21.82;52.19;99813.75;4880981;29;20166;-83
2023/07/04 09:27:37;;;;;;;29.48;10.05;;;;;;;21.83;52.06;99831.66;4897048;29;20080;-84
2023/07/04 09:30:05;;;;;;;22.10;7.45;;;;;;;21.88;51.55;99823.75;4861429;29;20374;-83
2023/07/04 09:32:32;;;;;;;17.85;7.85;;;;;;;21.87;50.10;99819.38;4880851;29;20073;-84
2023/07/04 09:35:02;;;;;;;21.67;7.78;;;;;;;21.81;51.20;99825.63;4893232;29;20132;-84
2023/07/04 09:37:29;;;;;;;23.40;7.63;;;;;;;21.85;50.63;99813.38;4874819;29;20051;-83
2023/07/04 09:39:59;;;;;;;22.27;7.85;;;;;;;21.88;50.86;99814.81;4881262;29;20076;-83
2023/07/04 09:42:31;;;;;;;25.88;8.32;;;;;;;21.90;50.74;99812.72;4892882;29;20508;-85
2023/07/04 09:45:20;;;;;;;30.98;8.80;;;;;;;21.94;50.29;99816.66;4901220;29;20444;-84
2023/07/04 09:47:47;;;;;;;20.40;8.43;;;;;;;22.00;50.83;99813.09;4875806;29;20707;-84
2023/07/04 09:50:21;;;;;;;26.63;8.10;;;;;;;22.05;49.97;99816.00;4854794;29;20041;-83
2023/07/04 09:53:03;;;;;;;20.83;8.30;;;;;;;22.04;49.60;99806.25;4885052;29;20048;-84
2023/07/04 09:55:31;;;;;;;22.95;8.00;;;;;;;22.02;49.45;99810.22;4897078;29;20050;-84
2023/07/04 09:58:16;;;;;;;24.27;8.07;;;;;;;21.92;48.27;99815.22;4888233;29;20091;-83
2023/07/04 10:00:45;;;;;;;26.67;8.30;;;;;;;22.00;48.95;99820.41;4873711;29;20056;-83
2023/07/04 10:03:12;;;;;;;15.48;7.22;;;;;;;22.00;49.05;99813.09;4884920;29;20140;-84
2023/07/04 10:05:40;;;;;;;22.52;7.30;;;;;;;22.06;48.50;99800.63;4892452;29;20052;-83
2023/07/04 10:08:09;;;;;;;26.92;7.25;;;;;;;22.09;48.23;99805.63;4854816;29;20128;-84
2023/07/04 10:10:52;;;;;;;17.13;6.60;;;;;;;22.05;47.52;99804.38;4877949;29;20071;-84
2023/07/04 10:13:24;;;;;;;22.40;7.75;;;;;;;22.12;47.82;99807.88;4890099;29;20039;-84
2023/07/04 10:15:51;;;;;;;22.52;7.00;;;;;;;22.18;47.95;99812.44;4881186;29;20116;-83
2023/07/04 10:18:30;;;;;;;25.38;8.68;;;;;;;22.12;46.94;99816.00;4847655;29;20524;-83
2023/07/04 10:20:59;;;;;;;13.07;6.15;;;;;;;22.21;46.88;99806.66;4846074;29;20040;-84
2023/07/04 10:23:27;;;;;;;19.65;7.13;;;;;;;22.23;46.12;99807.25;4891874;29;20080;-82
2023/07/04 10:25:59;;;;;;;17.88;7.47;;;;;;;22.21;45.68;99797.69;4862015;29;20048;-83
2023/07/04 10:28:27;;;;;;;24.15;7.57;;;;;;;22.23;45.89;99790.22;4887967;29;20507;-84
2023/07/04 10:30:57;;;;;;;15.30;6.57;;;;;;;22.25;44.77;99791.66;4847534;29;20051;-84
2023/07/04 10:33:51;;;;;;;21.38;7.75;;;;;;;22.15;42.39;99810.16;4853350;29;20046;-84
2023/07/04 10:36:26;;;;;;;16.65;6.97;;;;;;;22.15;44.49;99799.34;4881754;29;20052;-84
2023/07/04 10:38:56;;;;;;;17.42;6.95;;;;;;;22.19;45.23;99797.94;4862060;29;20049;-85
2023/07/04 10:41:27;;;;;;;16.25;6.47;;;;;;;22.24;45.62;99791.88;4873377;29;20450;-84
2023/07/04 10:44:02;;;;;;;19.13;7.28;;;;;;;22.24;44.79;99795.41;4899949;29;20047;-83
2023/07/04 10:46:33;;;;;;;19.15;7.20;;;;;;;22.30;44.21;99783.72;4881057;29;20049;-83
2023/07/04 10:49:05;;;;;;;16.20;6.32;;;;;;;22.29;44.27;99778.56;4895668;29;20057;-82
2023/07/04 10:51:36;;;;;;;18.35;7.15;;;;;;;22.28;44.03;99780.41;4888601;29;20041;-82
2023/07/04 10:54:04;;;;;;;19.17;7.30;;;;;;;22.35;44.00;99774.16;4889712;29;20059;-84
2023/07/04 10:56:32;;;;;;;17.70;7.65;;;;;;;22.36;43.69;99763.09;4888957;29;20056;-85
2023/07/04 10:59:05;;;;;;;17.88;6.43;;;;;;;22.35;42.93;99774.16;4869928;29;20053;-85
2023/07/04 11:01:39;;;;;;;16.58;6.60;;;;;;;22.30;40.93;99772.91;4879208;29;20071;-84
2023/07/04 11:04:39;;;;;;;15.75;6.40;;;;;;;22.33;43.01;99774.34;4889491;29;20044;-84
2023/07/04 11:07:09;;;;;;;20.10;7.00;;;;;;;22.35;43.38;99776.84;4871745;29;20052;-86
2023/07/04 11:09:39;;;;;;;14.15;6.60;;;;;;;22.42;43.14;99767.66;4851099;29;20749;-86
2023/07/04 11:12:11;;;;;;;13.88;6.55;;;;;;;22.50;43.07;99764.72;4846712;29;20477;-85
2023/07/04 11:14:40;;;;;;;14.07;6.40;;;;;;;22.55;43.09;99772.19;4884576;29;20048;-86
2023/07/04 11:17:11;;;;;;;16.75;6.55;;;;;;;22.53;42.73;99771.56;4872274;29;20401;-84
2023/07/04 11:20:11;;;;;;;17.55;6.63;;;;;;;22.53;43.01;99768.88;4857432;29;20120;-83
2023/07/04 11:22:44;;;;;;;14.85;6.25;;;;;;;22.66;43.13;99760.66;4855582;29;20044;-83
2023/07/04 11:25:26;;;;;;;21.05;7.78;;;;;;;22.71;42.82;99765.44;4884177;29;20044;-84
2023/07/04 11:28:14;;;;;;;16.50;7.47;;;;;;;22.70;42.23;99759.19;4889201;29;20123;-83
2023/07/04 11:30:44;;;;;;;18.50;7.57;;;;;;;22.77;42.71;99751.06;4900433;29;20049;-83
2023/07/04 11:33:53;;;;;;;14.45;6.70;;;;;;;22.70;41.82;99767.31;4871387;29;20052;-83
2023/07/04 11:36:26;;;;;;;16.67;7.35;;;;;;;22.78;41.93;99751.88;4883113;29;20063;-85
2023/07/04 11:38:57;;;;;;;18.52;7.30;;;;;;;22.83;41.99;99757.47;4871912;29;20396;-83
2023/07/04 11:41:33;;;;;;;18.95;7.75;;;;;;;22.91;41.76;99760.72;4878698;29;20131;-84
2023/07/04 11:44:12;;;;;;;19.55;7.88;;;;;;;22.88;40.66;99753.06;4872809;29;20056;-83